createdAt,value
2023-01-07T08:35:31.454Z,87.20
2023-01-07T08:36:31.303Z,86.90
2023-01-07T08:37:31.309Z,87.20
2023-01-07T08:38:31.308Z,87.41
2023-01-07T08:39:31.295Z,87.20
2023-01-07T08:40:31.258Z,86.79
2023-01-07T08:41:31.257Z,86.49
2023-01-07T08:42:31.235Z,87.10
2023-01-07T08:43:31.341Z,87.41
2023-01-07T08:44:31.216Z,86.79
2023-01-07T08:45:31.207Z,86.90
2023-01-07T08:46:31.267Z,87.41
2023-01-07T08:47:31.184Z,86.90
2023-01-07T08:48:31.197Z,87.20
2023-01-07T08:49:31.162Z,87.00
2023-01-07T08:50:31.147Z,87.20
2023-01-07T08:51:31.269Z,87.30
2023-01-07T08:52:31.138Z,87.41
2023-01-07T08:53:31.143Z,86.69
2023-01-07T08:54:31.110Z,86.69
2023-01-07T08:55:31.107Z,86.49
2023-01-07T08:56:31.089Z,87.20
2023-01-07T08:57:31.085Z,87.41
2023-01-07T08:58:31.093Z,87.00
2023-01-07T08:59:31.064Z,86.38
2023-01-07T09:00:31.082Z,86.49
2023-01-07T09:01:31.176Z,86.49
2023-01-07T09:02:31.106Z,86.55
2023-01-07T09:03:31.028Z,86.79
2023-01-07T09:04:30.988Z,86.69
2023-01-07T09:05:31.003Z,86.59
2023-01-07T09:06:30.969Z,86.69
2023-01-07T09:07:31.087Z,86.49
2023-01-07T09:08:30.968Z,86.38
2023-01-07T09:09:30.954Z,85.73
2023-01-07T09:10:30.928Z,85.42
2023-01-07T09:11:30.922Z,85.83
2023-01-07T09:12:30.902Z,85.42
2023-01-07T09:13:30.921Z,85.63
2023-01-07T09:14:30.877Z,85.73
2023-01-07T09:15:30.865Z,85.83
2023-01-07T09:16:30.914Z,85.94
2023-01-07T09:17:30.854Z,85.94
2023-01-07T09:18:30.850Z,85.32
2023-01-07T09:19:30.832Z,85.42
2023-01-07T09:20:30.800Z,85.53
2023-01-07T09:21:30.823Z,85.63
2023-01-07T09:22:30.802Z,85.32
2023-01-07T09:23:30.907Z,84.71
2023-01-07T09:24:30.770Z,85.08
2023-01-07T09:25:30.783Z,85.53
2023-01-07T09:26:30.759Z,84.71
2023-01-07T09:27:30.741Z,84.88
2023-01-07T09:28:30.739Z,85.08
2023-01-07T09:29:30.706Z,84.88
2023-01-07T09:30:30.710Z,84.81
2023-01-07T09:31:30.737Z,85.02
2023-01-07T09:32:30.664Z,84.98
2023-01-07T09:33:30.696Z,84.67
2023-01-07T09:34:30.690Z,84.88
2023-01-07T09:35:30.638Z,84.57
2023-01-07T09:36:30.631Z,83.79
2023-01-07T09:37:30.639Z,83.85
2023-01-07T09:38:30.615Z,83.71
2023-01-07T09:39:30.717Z,83.44
2023-01-07T09:40:30.597Z,83.75
2023-01-07T09:41:30.585Z,83.85
2023-01-07T09:42:33.032Z,83.20
2023-01-07T09:44:01.030Z,83.40
2023-01-07T09:44:31.528Z,83.44
2023-01-07T09:45:30.599Z,83.34
2023-01-07T09:46:30.533Z,83.40
2023-01-07T09:47:30.512Z,83.34
2023-01-07T09:48:30.498Z,83.75
2023-01-07T09:49:30.476Z,83.65
2023-01-07T09:50:30.479Z,83.34
2023-01-07T09:51:30.455Z,83.04
2023-01-07T09:52:30.459Z,83.61
2023-01-07T09:53:30.465Z,83.75
2023-01-07T09:54:30.436Z,83.40
2023-01-07T09:55:30.540Z,83.00
2023-01-07T09:56:30.409Z,83.24
2023-01-07T09:57:30.398Z,82.89
2023-01-07T09:58:30.404Z,83.10
2023-01-07T09:59:30.368Z,82.12
2023-01-07T10:00:30.351Z,82.49
2023-01-07T10:01:30.469Z,81.98
2023-01-07T10:02:30.406Z,82.49
2023-01-07T10:03:30.502Z,82.42
2023-01-07T10:04:30.315Z,82.49
2023-01-07T10:05:30.311Z,81.77
2023-01-07T10:06:42.651Z,82.28
2023-01-07T10:07:31.271Z,81.98
2023-01-07T10:08:32.073Z,81.77
2023-01-07T10:09:30.251Z,81.98
2023-01-07T10:10:30.240Z,81.98
2023-01-07T10:11:30.371Z,81.84
2023-01-07T10:12:30.222Z,81.87
2023-01-07T10:13:30.242Z,81.32
2023-01-07T10:14:30.210Z,81.43
2023-01-07T10:15:30.201Z,80.61
2023-01-07T10:16:30.186Z,80.27
2023-01-07T10:17:30.178Z,79.75
2023-01-07T10:18:30.170Z,78.94
2023-01-07T10:19:30.161Z,79.21
2023-01-07T10:20:30.256Z,79.11
2023-01-07T10:21:30.137Z,78.30
2023-01-07T10:22:30.107Z,78.97
2023-01-07T10:23:30.126Z,78.26
2023-01-07T10:24:30.094Z,78.46
2023-01-07T10:25:30.085Z,78.46
2023-01-07T10:26:30.088Z,77.20
2023-01-07T10:27:30.200Z,77.10
2023-01-07T10:28:30.067Z,77.24
2023-01-07T10:29:30.035Z,77.03
2023-01-07T10:30:30.023Z,77.48
2023-01-07T10:31:30.088Z,78.19
2023-01-07T10:32:29.998Z,77.98
2023-01-07T10:33:29.992Z,77.78
2023-01-07T10:34:29.976Z,77.07
2023-01-07T10:35:29.967Z,77.48
2023-01-07T10:36:29.950Z,77.17
2023-01-07T10:37:29.949Z,77.78
2023-01-07T10:38:29.943Z,77.68
2023-01-07T10:39:29.930Z,78.39
2023-01-07T10:40:29.893Z,77.98
2023-01-07T10:41:29.900Z,78.64
2023-01-07T10:42:29.880Z,77.89
2023-01-07T10:43:29.921Z,78.30
2023-01-07T10:44:29.874Z,79.04
2023-01-07T10:45:29.861Z,78.64
2023-01-07T10:46:29.840Z,79.08
2023-01-07T10:47:29.818Z,78.77
2023-01-07T10:48:29.846Z,79.18
2023-01-07T10:49:29.823Z,79.14
2023-01-07T10:50:29.803Z,78.88
2023-01-07T10:51:29.783Z,79.59
2023-01-07T10:52:29.771Z,79.69
2023-01-07T10:53:29.781Z,79.69
2023-01-07T10:54:29.761Z,79.80
2023-01-07T10:55:29.738Z,80.00
2023-01-07T10:56:29.731Z,79.69
2023-01-07T10:57:29.707Z,80.04
2023-01-07T10:58:29.703Z,79.83
2023-01-07T10:59:29.817Z,80.04
2023-01-07T11:00:29.665Z,80.34
2023-01-07T11:01:29.835Z,80.00
2023-01-07T11:02:29.930Z,79.93
2023-01-07T11:03:29.736Z,79.80
2023-01-07T11:04:29.650Z,80.10
2023-01-07T11:05:29.667Z,80.24
2023-01-07T11:06:29.612Z,79.73
2023-01-07T11:07:29.621Z,80.51
2023-01-07T11:08:29.684Z,80.96
2023-01-07T11:09:29.572Z,80.44
2023-01-07T11:10:29.569Z,80.65
2023-01-07T11:11:29.550Z,80.65
2023-01-07T11:12:29.530Z,80.14
2023-01-07T11:13:29.543Z,81.05
2023-01-07T11:14:29.524Z,80.65
2023-01-07T11:15:29.638Z,80.96
2023-01-07T11:16:29.578Z,80.58
2023-01-07T11:17:29.485Z,80.65
2023-01-07T11:18:29.495Z,80.44
2023-01-07T11:19:29.459Z,81.16
2023-01-07T11:20:29.456Z,80.85
2023-01-07T11:21:44.416Z,81.16
2023-01-07T11:22:30.423Z,80.85
2023-01-07T11:23:29.449Z,81.26
2023-01-07T11:24:29.419Z,80.65
2023-01-07T11:25:29.447Z,81.26
2023-01-07T11:26:29.372Z,80.75
2023-01-07T11:27:29.380Z,81.05
2023-01-07T11:28:29.383Z,80.34
2023-01-07T11:29:29.342Z,79.73
2023-01-07T11:30:29.329Z,79.83
2023-01-07T11:31:29.495Z,79.52
2023-01-07T11:32:29.308Z,78.71
2023-01-07T11:34:01.978Z,79.32
2023-01-07T11:34:30.283Z,78.91
2023-01-07T11:35:29.287Z,78.91
2023-01-07T11:36:29.258Z,77.69
2023-01-07T11:37:29.261Z,77.08
2023-01-07T11:38:29.255Z,75.31
2023-01-07T11:39:29.235Z,75.41
2023-01-07T11:40:29.226Z,75.41
2023-01-07T11:41:29.222Z,74.18
2023-01-07T11:42:29.194Z,73.47
2023-01-07T11:43:29.199Z,73.77
2023-01-07T11:44:29.187Z,72.86
2023-01-07T11:45:29.229Z,72.96
2023-01-07T11:46:29.217Z,72.96
2023-01-07T11:47:29.295Z,73.06
2023-01-07T11:48:29.169Z,72.86
2023-01-07T11:49:29.141Z,72.62
2023-01-07T11:50:29.130Z,72.96
2023-01-07T11:51:29.101Z,72.82
2023-01-07T11:52:29.097Z,72.62
2023-01-07T11:53:29.077Z,73.06
2023-01-07T11:54:29.058Z,72.62
2023-01-07T11:55:29.056Z,72.72
2023-01-07T11:56:29.047Z,73.84
2023-01-07T11:57:29.026Z,73.94
2023-01-07T11:58:30.951Z,74.05
2023-01-07T11:59:29.014Z,73.94
2023-01-07T12:00:29.005Z,73.84
2023-01-07T12:01:29.028Z,73.43
2023-01-07T12:02:29.024Z,73.74
2023-01-07T12:03:29.134Z,74.96
2023-01-07T12:04:28.962Z,75.74
2023-01-07T12:05:28.950Z,76.87
2023-01-07T12:06:28.940Z,77.11
2023-01-07T12:07:28.905Z,77.31
2023-01-07T12:08:29.052Z,78.33
2023-01-07T12:09:28.884Z,77.31
2023-01-07T12:10:28.874Z,77.68
2023-01-07T12:11:28.875Z,77.82
2023-01-07T12:12:28.871Z,77.72
2023-01-07T12:13:28.865Z,77.58
2023-01-07T12:14:28.844Z,75.85
2023-01-07T12:15:28.827Z,75.34
2023-01-07T12:16:28.891Z,73.54
2023-01-07T12:17:28.811Z,73.74
2023-01-07T12:18:28.813Z,73.40
2023-01-07T12:19:28.899Z,73.60
2023-01-07T12:20:28.767Z,72.99
2023-01-07T12:21:28.747Z,72.08
2023-01-07T12:22:28.741Z,72.28
2023-01-07T12:23:28.746Z,73.16
2023-01-07T12:24:28.724Z,72.38
2023-01-07T12:25:28.712Z,72.69
2023-01-07T12:26:28.744Z,73.88
2023-01-07T12:27:28.679Z,72.96
2023-01-07T12:28:28.685Z,71.26
2023-01-07T12:29:28.671Z,70.61
2023-01-07T12:30:28.654Z,70.21
2023-01-07T12:31:28.706Z,70.04
2023-01-07T12:32:28.641Z,70.21
2023-01-07T12:33:28.635Z,70.10
2023-01-07T12:34:28.601Z,70.21
2023-01-07T12:35:28.723Z,70.21
2023-01-07T12:36:28.596Z,69.87
2023-01-07T12:37:28.588Z,70.61
2023-01-07T12:38:28.575Z,70.82
2023-01-07T12:39:28.555Z,70.10
2023-01-07T12:40:28.540Z,70.10
2023-01-07T12:41:28.535Z,70.00
2023-01-07T12:42:28.528Z,70.17
2023-01-07T12:43:28.524Z,70.31
2023-01-07T12:44:28.502Z,70.41
2023-01-07T12:45:28.485Z,70.41
2023-01-07T12:46:28.553Z,70.61
2023-01-07T12:47:31.734Z,70.31
2023-01-07T12:48:29.488Z,70.31
2023-01-07T12:49:28.433Z,70.21
2023-01-07T12:50:28.427Z,69.46
2023-01-07T12:51:28.555Z,69.80
2023-01-07T12:52:28.405Z,69.56
2023-01-07T12:53:28.400Z,69.12
2023-01-07T12:54:28.402Z,68.79
2023-01-07T12:55:28.389Z,68.85
2023-01-07T12:56:28.446Z,67.22
2023-01-07T12:57:28.425Z,68.07
2023-01-07T12:58:28.349Z,67.66
2023-01-07T12:59:46.282Z,67.69
2023-01-07T13:00:29.306Z,68.71
2023-01-07T13:01:28.509Z,68.75
2023-01-07T13:02:28.369Z,68.85
2023-01-07T13:03:28.283Z,68.85
2023-01-07T13:04:28.366Z,68.95
2023-01-07T13:05:28.275Z,68.95
2023-01-07T13:06:28.387Z,69.70
2023-01-07T13:07:28.277Z,69.56
2023-01-07T13:08:28.248Z,69.49
2023-01-07T13:09:28.201Z,69.97
2023-01-07T13:10:28.214Z,70.00
2023-01-07T13:11:28.192Z,69.39
2023-01-07T13:12:42.314Z,70.10
2023-01-07T13:13:29.178Z,70.10
2023-01-07T13:14:28.162Z,70.41
2023-01-07T13:15:28.142Z,69.90
2023-01-07T13:16:28.227Z,70.21
2023-01-07T13:17:28.124Z,70.82
2023-01-07T13:18:28.116Z,70.41
2023-01-07T13:19:28.100Z,70.61
2023-01-07T13:20:28.096Z,70.82
2023-01-07T13:21:28.079Z,71.02
2023-01-07T13:22:28.069Z,71.23
2023-01-07T13:23:28.180Z,70.61
2023-01-07T13:24:54.717Z,70.61
2023-01-07T13:25:29.044Z,70.61
2023-01-07T13:26:28.024Z,70.21
2023-01-07T13:27:28.037Z,70.21
2023-01-07T13:28:28.007Z,70.31
2023-01-07T13:29:27.974Z,70.41
2023-01-07T13:30:27.980Z,70.68
2023-01-07T13:31:28.011Z,70.31
2023-01-07T13:32:27.944Z,70.21
2023-01-07T13:33:27.963Z,70.17
2023-01-07T13:34:27.936Z,70.82
2023-01-07T13:35:27.923Z,70.72
2023-01-07T13:36:27.920Z,70.38
2023-01-07T13:37:27.898Z,70.41
2023-01-07T13:38:27.905Z,70.17
2023-01-07T13:39:27.990Z,70.28
2023-01-07T13:40:27.865Z,70.68
2023-01-07T13:41:27.851Z,70.51
2023-01-07T13:42:27.844Z,70.31
2023-01-07T13:43:27.834Z,70.72
2023-01-07T13:44:27.824Z,70.61
2023-01-07T13:45:27.800Z,70.78
2023-01-07T13:46:27.851Z,70.38
2023-01-07T13:47:27.786Z,69.43
2023-01-07T13:48:27.791Z,69.43
2023-01-07T13:49:27.861Z,69.19
2023-01-07T13:50:27.776Z,68.99
2023-01-07T13:51:27.723Z,68.79
2023-01-07T13:52:27.733Z,68.35
2023-01-07T13:53:27.732Z,68.48
2023-01-07T13:54:27.708Z,68.75
2023-01-07T13:55:27.856Z,68.55
2023-01-07T13:56:27.695Z,68.65
2023-01-07T13:57:27.659Z,68.04
2023-01-07T13:58:27.853Z,68.79
2023-01-07T13:59:27.635Z,68.58
2023-01-07T14:00:27.643Z,68.88
2023-01-07T14:01:27.803Z,69.12
2023-01-07T14:02:27.734Z,69.02
2023-01-07T14:03:27.603Z,69.53
2023-01-07T14:04:27.595Z,68.92
2023-01-07T14:05:27.579Z,69.43
2023-01-07T14:06:27.581Z,70.04
2023-01-07T14:07:27.563Z,69.63
2023-01-07T14:08:27.566Z,69.93
2023-01-07T14:09:27.539Z,70.28
2023-01-07T14:10:27.521Z,69.76
2023-01-07T14:11:27.649Z,69.97
2023-01-07T14:12:27.491Z,69.87
2023-01-07T14:13:27.503Z,69.76
2023-01-07T14:14:27.480Z,70.75
2023-01-07T14:15:27.454Z,69.76
2023-01-07T14:16:27.575Z,70.58
2023-01-07T14:17:27.471Z,69.87
2023-01-07T14:18:27.442Z,69.97
2023-01-07T14:19:27.423Z,69.97
2023-01-07T14:20:27.450Z,70.38
2023-01-07T14:21:27.385Z,69.87
2023-01-07T14:22:27.398Z,69.90
2023-01-07T14:23:27.484Z,70.21
2023-01-07T14:24:27.353Z,70.07
2023-01-07T14:25:27.358Z,69.87
2023-01-07T14:26:27.344Z,70.07
2023-01-07T14:27:27.437Z,70.17
2023-01-07T14:28:27.327Z,70.10
2023-01-07T14:29:27.292Z,70.21
2023-01-07T14:30:27.300Z,70.28
2023-01-07T14:31:27.392Z,70.48
2023-01-07T14:32:27.264Z,69.46
2023-01-07T14:33:27.279Z,70.48
2023-01-07T14:34:27.261Z,70.10
2023-01-07T14:35:27.225Z,70.21
2023-01-07T14:36:27.235Z,70.17
2023-01-07T14:37:27.218Z,70.07
2023-01-07T14:38:27.221Z,70.61
2023-01-07T14:39:27.210Z,70.31
2023-01-07T14:40:27.187Z,70.82
2023-01-07T14:41:27.157Z,70.41
2023-01-07T14:42:27.162Z,70.92
2023-01-07T14:43:27.286Z,71.43
2023-01-07T14:44:27.148Z,71.33
2023-01-07T14:45:27.114Z,71.23
2023-01-07T14:46:27.193Z,71.12
2023-01-07T14:47:27.089Z,71.06
2023-01-07T14:48:27.112Z,71.23
2023-01-07T14:49:27.067Z,71.12
2023-01-07T14:50:27.094Z,71.15
2023-01-07T14:51:27.048Z,71.36
2023-01-07T14:52:27.054Z,71.36
2023-01-07T14:53:27.062Z,71.15
2023-01-07T14:54:27.027Z,71.15
2023-01-07T14:55:27.014Z,71.19
2023-01-07T14:56:27.008Z,71.19
2023-01-07T14:57:26.989Z,71.56
2023-01-07T14:58:27.021Z,71.29
2023-01-07T14:59:27.083Z,71.50
2023-01-07T15:00:26.962Z,71.09
2023-01-07T15:01:27.125Z,70.68
2023-01-07T15:02:27.181Z,71.29
2023-01-07T15:03:26.985Z,72.00
2023-01-07T15:04:26.908Z,72.11
2023-01-07T15:05:26.902Z,72.34
2023-01-07T15:06:26.885Z,71.70
2023-01-07T15:07:26.863Z,72.00
2023-01-07T15:08:26.871Z,72.31
2023-01-07T15:09:26.866Z,72.04
2023-01-07T15:10:26.852Z,71.73
2023-01-07T15:11:26.819Z,72.21
2023-01-07T15:12:26.824Z,71.73
2023-01-07T15:13:26.832Z,72.04
2023-01-07T15:14:26.793Z,72.34
2023-01-07T15:15:26.894Z,72.24
2023-01-07T15:16:26.882Z,72.28
2023-01-07T15:17:26.756Z,72.28
2023-01-07T15:18:26.769Z,72.24
2023-01-07T15:19:26.741Z,72.38
2023-01-07T15:20:26.738Z,72.79
2023-01-07T15:21:26.726Z,72.69
2023-01-07T15:22:26.723Z,72.79
2023-01-07T15:23:26.700Z,72.89
2023-01-07T15:24:26.693Z,72.89
2023-01-07T15:25:26.691Z,72.69
2023-01-07T15:26:26.652Z,72.69
2023-01-07T15:27:28.953Z,72.72
2023-01-07T15:28:26.791Z,73.40
2023-01-07T15:29:26.627Z,73.33
2023-01-07T15:30:26.605Z,72.99
2023-01-07T15:31:26.759Z,72.82
2023-01-07T15:32:26.585Z,72.89
2023-01-07T15:33:26.609Z,72.89
2023-01-07T15:34:26.568Z,72.72
2023-01-07T15:35:26.546Z,72.72
2023-01-07T15:36:26.567Z,73.54
2023-01-07T15:37:26.523Z,73.03
2023-01-07T15:38:26.553Z,72.92
2023-01-07T15:39:26.505Z,73.13
2023-01-07T15:40:26.512Z,72.92
2023-01-07T15:41:26.477Z,72.82
2023-01-07T15:42:26.483Z,72.65
2023-01-07T15:43:26.485Z,73.06
2023-01-07T15:44:29.018Z,72.92
2023-01-07T15:45:26.444Z,73.16
2023-01-07T15:46:26.540Z,73.27
2023-01-07T15:47:26.543Z,73.47
2023-01-07T15:48:26.420Z,74.18
2023-01-07T15:49:26.407Z,73.88
2023-01-07T15:50:26.394Z,73.88
2023-01-07T15:51:26.368Z,74.18
2023-01-07T15:52:26.376Z,74.59
2023-01-07T15:53:26.366Z,74.52
2023-01-07T15:54:26.343Z,74.73
2023-01-07T15:55:26.344Z,74.73
2023-01-07T15:56:26.327Z,75.45
2023-01-07T15:57:26.319Z,75.34
2023-01-07T15:58:26.334Z,75.55
2023-01-07T15:59:26.275Z,75.34
2023-01-07T16:00:26.270Z,75.59
2023-01-07T16:01:26.432Z,75.24
2023-01-07T16:02:26.285Z,75.24
2023-01-07T16:03:26.360Z,75.55
2023-01-07T16:04:26.304Z,75.85
2023-01-07T16:05:26.239Z,75.59
2023-01-07T16:06:26.196Z,75.75
2023-01-07T16:07:26.193Z,75.68
2023-01-07T16:08:26.194Z,75.59
2023-01-07T16:09:26.158Z,75.27
2023-01-07T16:10:26.164Z,75.38
2023-01-07T16:11:26.164Z,75.38
2023-01-07T16:12:26.136Z,76.09
2023-01-07T16:13:26.137Z,75.89
2023-01-07T16:14:26.127Z,75.89
2023-01-07T16:15:26.113Z,75.89
2023-01-07T16:16:26.121Z,75.59
2023-01-07T16:17:26.072Z,75.68
2023-01-07T16:18:26.081Z,75.79
2023-01-07T16:19:26.171Z,75.99
2023-01-07T16:20:27.631Z,76.09
2023-01-07T16:21:26.033Z,76.34
2023-01-07T16:22:26.028Z,76.43
2023-01-07T16:23:26.051Z,76.50
2023-01-07T16:24:26.005Z,76.54
2023-01-07T16:25:26.003Z,76.95
2023-01-07T16:26:25.977Z,77.32
2023-01-07T16:27:25.981Z,76.84
2023-01-07T16:28:25.993Z,77.67
2023-01-07T16:29:25.959Z,77.67
2023-01-07T16:30:25.934Z,77.56
2023-01-07T16:31:26.069Z,77.15
2023-01-07T16:32:25.904Z,77.26
2023-01-07T16:33:25.917Z,77.76
2023-01-07T16:34:25.886Z,78.11
2023-01-07T16:35:26.000Z,77.97
2023-01-07T16:36:25.862Z,77.80
2023-01-07T16:37:25.855Z,78.21
2023-01-07T16:38:25.849Z,77.91
2023-01-07T16:39:25.845Z,78.08
2023-01-07T16:40:25.802Z,78.52
2023-01-07T16:41:25.798Z,78.08
2023-01-07T16:42:25.796Z,78.01
2023-01-07T16:43:25.801Z,77.80
2023-01-07T16:44:25.761Z,77.26
2023-01-07T16:45:25.765Z,77.15
2023-01-07T16:46:25.783Z,77.56
2023-01-07T16:47:25.728Z,77.67
2023-01-07T16:48:25.723Z,77.26
2023-01-07T16:49:25.717Z,77.46
2023-01-07T16:50:25.710Z,76.95
2023-01-07T16:51:25.816Z,77.67
2023-01-07T16:52:25.671Z,76.84
2023-01-07T16:53:25.742Z,76.91
2023-01-07T16:54:25.652Z,76.84
2023-01-07T16:55:25.653Z,77.22
2023-01-07T16:56:25.633Z,77.26
2023-01-07T16:57:25.626Z,77.67
2023-01-07T16:58:25.738Z,77.36
2023-01-07T16:59:25.590Z,77.56
2023-01-07T17:00:25.722Z,77.46
2023-01-07T17:01:25.644Z,77.26
2023-01-07T17:02:25.561Z,77.56
2023-01-07T17:03:25.601Z,77.67
2023-01-07T17:04:25.531Z,77.56
2023-01-07T17:05:25.543Z,77.46
2023-01-07T17:06:25.513Z,77.56
2023-01-07T17:07:25.643Z,77.05
2023-01-07T17:08:25.726Z,77.46
2023-01-07T17:09:25.536Z,77.67
2023-01-07T17:10:25.503Z,77.42
2023-01-07T17:11:25.467Z,77.26
2023-01-07T17:12:25.457Z,77.36
2023-01-07T17:13:25.560Z,77.36
2023-01-07T17:14:25.416Z,77.36
2023-01-07T17:15:25.424Z,77.87
2023-01-07T17:16:25.502Z,77.36
2023-01-07T17:17:25.391Z,77.76
2023-01-07T17:18:25.539Z,77.67
2023-01-07T17:19:25.383Z,78.08
2023-01-07T17:20:25.364Z,77.87
2023-01-07T17:21:25.362Z,77.67
2023-01-07T17:22:25.349Z,77.87
2023-01-07T17:23:25.542Z,77.76
2023-01-07T17:24:25.316Z,77.94
2023-01-07T17:25:25.354Z,77.53
2023-01-07T17:26:25.277Z,77.97
2023-01-07T17:27:25.272Z,78.08
2023-01-07T17:28:25.716Z,77.87
2023-01-07T17:29:25.270Z,78.08
2023-01-07T17:30:25.234Z,77.97
2023-01-07T17:31:25.285Z,77.94
2023-01-07T17:32:25.227Z,77.87
2023-01-07T17:33:25.231Z,77.67
2023-01-07T17:34:25.335Z,77.97
2023-01-07T17:35:25.177Z,77.94
2023-01-07T17:36:25.181Z,77.53
2023-01-07T17:37:25.176Z,77.87
2023-01-07T17:38:25.182Z,77.83
2023-01-07T17:39:25.268Z,77.97
2023-01-07T17:40:25.139Z,77.63
2023-01-07T17:41:25.136Z,77.97
2023-01-07T17:42:25.100Z,78.08
2023-01-07T17:43:25.107Z,77.97
2023-01-07T17:44:25.094Z,77.97
2023-01-07T17:45:25.086Z,78.38
2023-01-07T17:46:25.147Z,78.08
2023-01-07T17:47:25.050Z,78.59
2023-01-07T17:48:25.048Z,78.59
2023-01-07T17:49:25.039Z,78.38
2023-01-07T17:50:25.016Z,78.38
2023-01-07T17:51:25.004Z,79.10
2023-01-07T17:52:25.046Z,79.41
2023-01-07T17:53:25.001Z,78.59
2023-01-07T17:54:24.966Z,78.89
2023-01-07T17:55:25.085Z,79.20
2023-01-07T17:56:24.958Z,78.38
2023-01-07T17:57:24.943Z,78.59
2023-01-07T17:58:24.928Z,78.38
2023-01-07T17:59:24.916Z,78.79
2023-01-07T18:00:24.908Z,78.79
2023-01-07T18:01:25.058Z,78.59
2023-01-07T18:02:24.999Z,78.89
2023-01-07T18:03:24.890Z,78.59
2023-01-07T18:04:24.850Z,79.61
2023-01-07T18:05:24.841Z,79.41
2023-01-07T18:06:24.837Z,79.50
2023-01-07T18:07:24.823Z,79.41
2023-01-07T18:08:24.815Z,79.96
2023-01-07T18:09:24.811Z,79.41
2023-01-07T18:10:24.792Z,79.41
2023-01-07T18:11:24.889Z,79.20
2023-01-07T18:12:24.758Z,79.41
2023-01-07T18:13:24.770Z,79.41
2023-01-07T18:14:24.736Z,79.64
2023-01-07T18:15:24.740Z,79.10
2023-01-07T18:16:24.767Z,79.61
2023-01-07T18:17:24.722Z,79.13
2023-01-07T18:18:24.702Z,79.61
2023-01-07T18:19:24.693Z,79.75
2023-01-07T18:20:24.691Z,80.02
2023-01-07T18:21:24.672Z,80.12
2023-01-07T18:22:24.658Z,79.71
2023-01-07T18:23:24.672Z,80.22
2023-01-07T18:24:24.650Z,80.22
2023-01-07T18:25:24.621Z,79.91
2023-01-07T18:26:24.658Z,80.26
2023-01-07T18:27:24.718Z,80.53
2023-01-07T18:28:24.600Z,80.02
2023-01-07T18:29:24.597Z,80.12
2023-01-07T18:30:24.562Z,80.53
2023-01-07T18:31:24.587Z,80.12
2023-01-07T18:32:24.531Z,80.43
2023-01-07T18:33:24.538Z,80.02
